createdAt,value
2017-08-07T00:00:25.816Z,12.87
2017-08-07T00:02:52.867Z,3.50
2017-08-07T00:05:20.431Z,3.90
2017-08-07T00:07:47.588Z,9.87
2017-08-07T00:10:14.628Z,3.70
2017-08-07T00:12:41.694Z,4.27
2017-08-07T00:15:08.584Z,5.63
2017-08-07T00:17:36.380Z,4.17
2017-08-07T00:20:03.674Z,6.70
2017-08-07T00:22:30.826Z,6.40
2017-08-07T00:24:57.606Z,5.70
2017-08-07T00:27:24.386Z,2.53
2017-08-07T00:29:51.684Z,4.50
2017-08-07T00:32:18.734Z,4.90
2017-08-07T00:34:45.785Z,7.60
2017-08-07T00:37:12.671Z,15.77
2017-08-07T00:39:39.755Z,4.50
2017-08-07T00:42:07.043Z,3.53
2017-08-07T00:44:34.916Z,5.33
2017-08-07T00:47:01.812Z,3.90
2017-08-07T00:49:29.346Z,2.70
2017-08-07T00:51:56.151Z,6.60
2017-08-07T00:54:23.671Z,2.97
2017-08-07T00:56:50.799Z,6.10
2017-08-07T00:59:17.636Z,5.00
2017-08-07T01:01:44.744Z,5.40
2017-08-07T01:04:12.403Z,9.60
2017-08-07T01:06:39.630Z,5.10
2017-08-07T01:09:07.291Z,7.93
2017-08-07T01:11:34.670Z,4.83
2017-08-07T01:14:02.027Z,8.60
2017-08-07T01:16:29.694Z,11.93
2017-08-07T01:18:56.740Z,3.23
2017-08-07T01:21:24.396Z,5.03
2017-08-07T01:23:51.191Z,11.43
2017-08-07T01:26:18.020Z,3.47
2017-08-07T01:28:44.857Z,13.70
2017-08-07T01:31:11.994Z,2.93
2017-08-07T01:33:38.787Z,5.07
2017-08-07T01:36:06.105Z,3.10
2017-08-07T01:38:32.947Z,3.87
2017-08-07T01:41:00.402Z,8.77
2017-08-07T01:43:27.727Z,10.23
2017-08-07T01:45:54.930Z,3.90
2017-08-07T01:48:21.733Z,6.13
2017-08-07T01:50:49.036Z,3.17
2017-08-07T01:53:15.843Z,7.13
2017-08-07T01:55:42.833Z,6.30
2017-08-07T01:58:09.647Z,6.23
2017-08-07T02:00:37.175Z,5.67
2017-08-07T02:03:04.455Z,5.33
2017-08-07T02:05:31.664Z,8.60
2017-08-07T02:07:58.715Z,9.17
2017-08-07T02:10:25.950Z,8.93
2017-08-07T02:12:52.967Z,7.90
2017-08-07T02:15:20.025Z,8.70
2017-08-07T02:17:46.822Z,13.67
2017-08-07T02:20:13.981Z,11.67
2017-08-07T02:22:40.867Z,8.60
2017-08-07T02:25:07.924Z,10.33
2017-08-07T02:27:35.740Z,10.97
2017-08-07T02:30:02.807Z,8.73
2017-08-07T02:32:29.622Z,7.87
2017-08-07T02:34:56.456Z,14.93
2017-08-07T02:37:23.659Z,8.50
2017-08-07T02:39:50.723Z,13.40
2017-08-07T02:42:18.285Z,9.63
2017-08-07T02:44:45.051Z,11.60
2017-08-07T02:47:12.015Z,9.33
2017-08-07T02:49:39.536Z,8.47
2017-08-07T02:52:06.469Z,10.10
2017-08-07T02:54:33.291Z,14.13
2017-08-07T02:57:00.611Z,8.43
2017-08-07T02:59:27.383Z,8.80
2017-08-07T03:01:54.223Z,7.70
2017-08-07T03:04:21.438Z,11.87
2017-08-07T03:06:48.603Z,7.70
2017-08-07T03:09:15.656Z,7.07
2017-08-07T03:11:42.887Z,6.30
2017-08-07T03:14:10.067Z,10.53
2017-08-07T03:16:37.222Z,8.03
2017-08-07T03:19:04.658Z,9.40
2017-08-07T03:21:31.864Z,6.77
2017-08-07T03:23:59.257Z,6.80
2017-08-07T03:26:26.489Z,10.13
2017-08-07T03:28:53.979Z,9.37
2017-08-07T03:31:20.764Z,11.70
2017-08-07T03:33:48.545Z,6.97
2017-08-07T03:36:15.435Z,9.70
2017-08-07T03:38:42.224Z,8.00
2017-08-07T03:41:09.364Z,6.90
2017-08-07T03:43:36.141Z,8.30
2017-08-07T03:46:02.985Z,8.73
2017-08-07T03:48:29.873Z,4.90
2017-08-07T03:50:56.650Z,10.10
2017-08-07T03:53:23.419Z,4.97
2017-08-07T03:55:50.585Z,11.53
2017-08-07T03:58:17.819Z,7.33
2017-08-07T04:00:44.838Z,10.00
2017-08-07T04:03:12.501Z,9.43
2017-08-07T04:05:39.550Z,7.30
2017-08-07T04:08:06.336Z,6.90
2017-08-07T04:10:33.219Z,5.50
2017-08-07T04:13:00.010Z,10.23
2017-08-07T04:15:26.846Z,8.53
2017-08-07T04:17:54.064Z,7.70
2017-08-07T04:20:21.319Z,5.37
2017-08-07T04:22:48.084Z,5.20
2017-08-07T04:25:15.783Z,6.53
2017-08-07T04:27:42.730Z,4.13
2017-08-07T04:30:09.499Z,6.73
2017-08-07T04:32:36.690Z,8.87
2017-08-07T04:35:03.478Z,14.47
2017-08-07T04:37:30.324Z,12.70
2017-08-07T04:39:57.603Z,6.50
2017-08-07T04:42:24.596Z,8.83
2017-08-07T04:44:51.510Z,6.03
2017-08-07T04:47:19.316Z,7.63
2017-08-07T04:49:46.368Z,10.50
2017-08-07T04:52:13.618Z,3.93
2017-08-07T04:54:40.630Z,5.17
2017-08-07T04:57:07.834Z,3.93
2017-08-07T04:59:34.888Z,6.90
2017-08-07T05:02:02.555Z,9.63
2017-08-07T05:04:29.608Z,4.90
2017-08-07T05:06:56.403Z,9.30
2017-08-07T05:09:23.224Z,8.77
2017-08-07T05:11:50.601Z,8.57
2017-08-07T05:14:17.414Z,4.07
2017-08-07T05:16:45.294Z,7.43
2017-08-07T05:19:12.395Z,6.67
2017-08-07T05:21:39.782Z,9.60
2017-08-07T05:24:06.955Z,12.60
2017-08-07T05:26:34.007Z,9.30
2017-08-07T05:29:01.453Z,8.07
2017-08-07T05:31:28.627Z,6.17
2017-08-07T05:33:56.391Z,4.60
2017-08-07T05:36:23.628Z,4.90
2017-08-07T05:38:50.435Z,9.40
2017-08-07T05:41:17.662Z,7.37
2017-08-07T05:43:45.070Z,6.03
2017-08-07T05:46:12.098Z,3.97
2017-08-07T05:48:39.019Z,6.87
2017-08-07T05:51:06.078Z,3.57
2017-08-07T05:53:32.948Z,8.97
2017-08-07T05:55:59.716Z,5.27
2017-08-07T05:58:26.925Z,9.13
2017-08-07T06:00:54.130Z,11.97
2017-08-07T06:03:21.032Z,4.93
2017-08-07T06:05:48.082Z,8.67
2017-08-07T06:08:15.330Z,6.83
2017-08-07T06:10:42.102Z,5.27
2017-08-07T06:13:09.493Z,5.30
2017-08-07T06:15:36.439Z,8.07
2017-08-07T06:18:03.654Z,3.70
2017-08-07T06:20:30.441Z,5.43
2017-08-07T06:22:57.259Z,4.30
2017-08-07T06:25:24.350Z,5.53
2017-08-07T06:27:51.869Z,3.13
2017-08-07T06:30:18.972Z,4.80
2017-08-07T06:32:45.806Z,3.57
2017-08-07T06:35:13.025Z,5.07
2017-08-07T06:37:40.696Z,3.10
2017-08-07T06:40:13.424Z,7.47
2017-08-07T06:42:40.333Z,11.23
2017-08-07T06:45:07.112Z,3.10
2017-08-07T06:47:34.127Z,4.03
2017-08-07T06:50:01.752Z,5.00
2017-08-07T06:52:28.542Z,7.93
2017-08-07T06:54:55.591Z,5.30
2017-08-07T06:57:22.876Z,7.07
2017-08-07T06:59:50.004Z,5.90
2017-08-07T07:02:17.060Z,3.00
2017-08-07T07:04:44.113Z,6.50
2017-08-07T07:07:11.749Z,7.37
2017-08-07T07:09:38.524Z,9.03
2017-08-07T07:12:05.332Z,3.80
2017-08-07T07:14:32.699Z,7.27
2017-08-07T07:16:59.504Z,3.10
2017-08-07T07:19:26.740Z,4.30
2017-08-07T07:21:54.406Z,2.93
2017-08-07T07:24:21.458Z,3.97
2017-08-07T07:26:48.342Z,5.63
2017-08-07T07:29:15.399Z,3.67
2017-08-07T07:31:43.326Z,4.13
2017-08-07T07:34:10.789Z,5.20
2017-08-07T07:36:38.162Z,4.13
2017-08-07T07:39:05.312Z,2.83
2017-08-07T07:41:32.366Z,4.40
2017-08-07T07:43:59.626Z,2.60
2017-08-07T07:46:26.776Z,3.30
2017-08-07T07:48:53.659Z,4.17
2017-08-07T07:51:21.086Z,3.47
2017-08-07T07:53:48.074Z,6.90
2017-08-07T07:56:15.130Z,6.30
2017-08-07T07:58:42.590Z,5.73
2017-08-07T08:01:10.049Z,12.50
2017-08-07T08:03:36.878Z,12.20
2017-08-07T08:06:03.958Z,4.47
2017-08-07T08:08:31.106Z,9.93
2017-08-07T08:10:58.071Z,3.87
2017-08-07T08:13:24.869Z,7.63
2017-08-07T08:15:51.873Z,5.13
2017-08-07T08:18:19.410Z,5.43
2017-08-07T08:20:46.443Z,5.20
2017-08-07T08:23:13.683Z,3.50
2017-08-07T08:25:40.856Z,4.67
2017-08-07T08:28:08.602Z,2.90
2017-08-07T08:30:35.411Z,4.50
2017-08-07T08:33:02.463Z,3.37
2017-08-07T08:35:29.232Z,4.67
2017-08-07T08:37:56.269Z,6.20
2017-08-07T08:40:23.527Z,2.80
2017-08-07T08:42:50.355Z,6.07
2017-08-07T08:45:17.692Z,4.03
2017-08-07T08:47:45.099Z,3.47
2017-08-07T08:50:12.876Z,11.63
2017-08-07T08:52:40.649Z,3.57
2017-08-07T08:55:07.820Z,4.43
2017-08-07T08:57:35.002Z,4.77
2017-08-07T09:00:02.059Z,3.83
2017-08-07T09:02:28.938Z,4.40
2017-08-07T09:04:56.377Z,9.53
2017-08-07T09:07:23.759Z,3.23
2017-08-07T09:09:50.573Z,5.20
2017-08-07T09:12:17.711Z,3.90
2017-08-07T09:14:45.112Z,13.30
2017-08-07T09:17:11.948Z,4.50
2017-08-07T09:19:39.296Z,4.83
2017-08-07T09:22:06.760Z,5.43
2017-08-07T09:24:33.580Z,6.33
2017-08-07T09:27:00.868Z,4.60
2017-08-07T09:29:27.754Z,3.33
2017-08-07T09:31:54.973Z,6.00
2017-08-07T09:34:22.263Z,5.10
2017-08-07T09:36:49.574Z,5.00
2017-08-07T09:39:16.748Z,4.40
2017-08-07T09:41:43.800Z,5.47
2017-08-07T09:44:11.468Z,4.77
2017-08-07T09:46:38.971Z,4.00
2017-08-07T09:49:06.422Z,4.80
2017-08-07T09:51:33.548Z,3.90
2017-08-07T09:54:00.430Z,3.63
2017-08-07T09:56:27.650Z,9.80
2017-08-07T09:58:54.706Z,4.33
2017-08-07T10:01:21.762Z,4.13
2017-08-07T10:03:48.535Z,7.47
2017-08-07T10:06:15.390Z,2.40
2017-08-07T10:08:42.616Z,5.00
2017-08-07T10:11:09.663Z,5.10
2017-08-07T10:13:36.735Z,4.10
2017-08-07T10:16:03.910Z,5.93
2017-08-07T10:18:30.671Z,4.17
2017-08-07T10:20:57.569Z,3.30
2017-08-07T10:23:24.623Z,3.60
2017-08-07T10:25:52.039Z,8.80
2017-08-07T10:28:19.036Z,4.10
2017-08-07T10:30:46.089Z,4.67
2017-08-07T10:33:12.856Z,3.60
2017-08-07T10:35:39.892Z,7.50
2017-08-07T10:38:06.771Z,3.70
2017-08-07T10:40:33.998Z,2.80
2017-08-07T10:43:01.265Z,3.77
2017-08-07T10:45:28.233Z,3.47
2017-08-07T10:47:55.463Z,4.87
2017-08-07T10:50:22.518Z,5.27
2017-08-07T10:52:49.404Z,4.53
2017-08-07T10:55:16.666Z,3.03
2017-08-07T10:57:43.674Z,4.00
2017-08-07T11:00:11.576Z,6.63
2017-08-07T11:02:38.700Z,4.50
2017-08-07T11:05:05.593Z,4.40
2017-08-07T11:07:32.422Z,4.53
2017-08-07T11:09:59.382Z,7.17
2017-08-07T11:12:26.142Z,4.07
2017-08-07T11:14:53.456Z,4.73
2017-08-07T11:17:20.845Z,3.23
2017-08-07T11:19:48.060Z,4.00
2017-08-07T11:22:14.958Z,3.60
2017-08-07T11:24:42.748Z,5.80
2017-08-07T11:27:09.527Z,3.80
2017-08-07T11:29:36.599Z,3.63
2017-08-07T11:32:04.109Z,4.67
2017-08-07T11:34:31.312Z,3.60
2017-08-07T11:36:58.975Z,4.03
2017-08-07T11:39:26.013Z,3.43
2017-08-07T11:41:52.798Z,3.73
2017-08-07T11:44:19.608Z,3.43
2017-08-07T11:46:46.372Z,4.20
2017-08-07T11:49:13.462Z,4.27
2017-08-07T11:51:40.531Z,4.20
2017-08-07T11:54:07.906Z,6.20
2017-08-07T11:56:35.097Z,7.23
2017-08-07T11:59:01.982Z,3.67
2017-08-07T12:01:29.202Z,4.17
2017-08-07T12:03:56.256Z,4.63
2017-08-07T12:06:23.308Z,3.50
2017-08-07T12:08:50.210Z,4.07
2017-08-07T12:11:17.415Z,2.83
2017-08-07T12:13:45.079Z,5.00
2017-08-07T12:16:12.132Z,4.57
2017-08-07T12:18:39.186Z,4.67
2017-08-07T12:21:06.241Z,5.60
2017-08-07T12:23:33.291Z,8.80
2017-08-07T12:26:00.714Z,4.20
2017-08-07T12:28:28.244Z,6.53
2017-08-07T12:30:55.372Z,4.43
2017-08-07T12:33:22.264Z,4.13
2017-08-07T12:35:49.095Z,3.13
2017-08-07T12:38:16.495Z,3.60
2017-08-07T12:40:43.742Z,6.00
2017-08-07T12:43:11.174Z,4.80
2017-08-07T12:45:38.307Z,3.97
2017-08-07T12:48:05.072Z,3.70
2017-08-07T12:50:31.884Z,3.67
2017-08-07T12:52:58.852Z,3.57
2017-08-07T12:55:26.519Z,3.47
2017-08-07T12:57:53.575Z,3.43
2017-08-07T13:00:20.473Z,4.00
2017-08-07T13:02:47.679Z,6.23
2017-08-07T13:05:14.732Z,5.03
2017-08-07T13:07:41.622Z,8.53
2017-08-07T13:10:08.412Z,3.80
2017-08-07T13:12:35.584Z,4.90
2017-08-07T13:15:02.471Z,2.93
2017-08-07T13:17:29.244Z,3.40
2017-08-07T13:19:56.271Z,3.80
2017-08-07T13:22:23.491Z,2.43
2017-08-07T13:24:50.546Z,8.40
2017-08-07T13:27:18.428Z,4.33
2017-08-07T13:29:45.573Z,4.27
2017-08-07T13:32:12.467Z,5.13
2017-08-07T13:34:39.370Z,2.30
2017-08-07T13:37:06.139Z,3.90
2017-08-07T13:39:32.905Z,2.67
2017-08-07T13:41:59.914Z,4.13
2017-08-07T13:44:26.688Z,4.03
2017-08-07T13:46:53.713Z,3.43
2017-08-07T13:49:20.523Z,3.13
2017-08-07T13:51:47.799Z,3.90
2017-08-07T13:54:15.940Z,3.43
2017-08-07T13:56:42.759Z,3.07
2017-08-07T13:59:09.738Z,2.53
2017-08-07T14:01:37.567Z,2.80
2017-08-07T14:04:04.400Z,3.50
2017-08-07T14:06:31.173Z,3.80
2017-08-07T14:08:58.427Z,3.50
2017-08-07T14:11:25.295Z,3.50
2017-08-07T14:13:52.759Z,3.60
2017-08-07T14:16:20.148Z,18.17
2017-08-07T14:18:47.243Z,5.40
2017-08-07T14:21:14.359Z,3.40
2017-08-07T14:23:41.182Z,3.20
2017-08-07T14:26:08.098Z,4.50
2017-08-07T14:28:34.867Z,4.20
2017-08-07T14:31:02.653Z,3.13
2017-08-07T14:33:29.871Z,3.83
2017-08-07T14:35:57.258Z,3.87
2017-08-07T14:38:24.283Z,4.70
2017-08-07T14:40:51.687Z,5.63
2017-08-07T14:43:18.531Z,2.73
2017-08-07T14:45:46.107Z,3.00
2017-08-07T14:48:13.724Z,3.47
2017-08-07T14:50:40.514Z,5.83
2017-08-07T14:53:07.279Z,3.57
2017-08-07T14:55:34.609Z,3.33
2017-08-07T14:58:01.631Z,3.60
2017-08-07T15:00:28.684Z,3.00
2017-08-07T15:02:55.495Z,3.37
2017-08-07T15:05:22.483Z,3.70
2017-08-07T15:07:49.539Z,8.10
2017-08-07T15:10:16.686Z,4.60
2017-08-07T15:12:43.639Z,5.30
2017-08-07T15:15:10.535Z,3.30
2017-08-07T15:17:37.579Z,4.93
2017-08-07T15:20:04.963Z,3.63
2017-08-07T15:22:32.161Z,4.40
2017-08-07T15:24:58.984Z,3.43
2017-08-07T15:27:25.743Z,4.00
2017-08-07T15:29:52.842Z,4.00
2017-08-07T15:32:19.911Z,4.23
2017-08-07T15:34:46.950Z,4.00
2017-08-07T15:37:14.480Z,5.80
2017-08-07T15:39:42.144Z,3.40
2017-08-07T15:42:09.198Z,3.83
2017-08-07T15:44:36.800Z,3.77
2017-08-07T15:47:03.620Z,3.80
2017-08-07T15:49:31.488Z,4.43
2017-08-07T15:51:58.293Z,3.47
2017-08-07T15:54:25.110Z,3.57
2017-08-07T15:56:51.875Z,3.07
2017-08-07T15:59:19.166Z,4.07
2017-08-07T16:01:45.989Z,4.83
2017-08-07T16:04:13.366Z,5.00
2017-08-07T16:06:40.138Z,3.20
2017-08-07T16:09:07.252Z,3.23
2017-08-07T16:11:34.302Z,3.33
2017-08-07T16:14:01.352Z,3.60
2017-08-07T16:16:28.758Z,3.83
2017-08-07T16:18:55.757Z,3.87
2017-08-07T16:21:22.972Z,3.80
2017-08-07T16:23:50.254Z,3.17
2017-08-07T16:26:17.023Z,3.53
2017-08-07T16:28:43.970Z,4.50
2017-08-07T16:31:11.412Z,3.43
2017-08-07T16:33:38.171Z,3.83
2017-08-07T16:36:05.844Z,3.73
2017-08-07T16:38:33.571Z,3.67
2017-08-07T16:41:00.624Z,4.70
2017-08-07T16:43:27.677Z,5.70
2017-08-07T16:45:54.505Z,3.70
2017-08-07T16:48:21.271Z,6.57
2017-08-07T16:50:48.772Z,3.53
2017-08-07T16:53:15.890Z,3.17
2017-08-07T16:55:42.656Z,3.90
2017-08-07T16:58:09.686Z,3.33
2017-08-07T17:00:37.547Z,3.63
2017-08-07T17:03:04.326Z,5.00
2017-08-07T17:05:31.465Z,3.70
2017-08-07T17:07:58.514Z,4.77
2017-08-07T17:10:25.568Z,5.07
2017-08-07T17:12:52.621Z,4.07
2017-08-07T17:15:19.675Z,3.40
2017-08-07T17:17:46.725Z,4.40
2017-08-07T17:20:13.507Z,3.80
2017-08-07T17:22:40.364Z,3.20
2017-08-07T17:25:07.896Z,13.00
2017-08-07T17:27:35.381Z,3.50
2017-08-07T17:30:02.608Z,3.43
2017-08-07T17:32:29.395Z,4.27
2017-08-07T17:34:56.408Z,4.00
2017-08-07T17:37:23.463Z,3.37
2017-08-07T17:39:50.512Z,3.50
2017-08-07T17:42:18.000Z,4.93
2017-08-07T17:44:45.062Z,5.50
2017-08-07T17:47:12.294Z,4.97
2017-08-07T17:49:39.177Z,4.30
2017-08-07T17:52:06.391Z,8.83
2017-08-07T17:54:33.445Z,4.60
2017-08-07T17:57:00.239Z,4.13
2017-08-07T17:59:27.563Z,5.83
2017-08-07T18:01:55.160Z,3.97
2017-08-07T18:04:21.932Z,4.57
2017-08-07T18:06:49.788Z,4.97
2017-08-07T18:09:16.991Z,4.87
2017-08-07T18:11:43.846Z,4.13
2017-08-07T18:14:11.397Z,4.80
2017-08-07T18:16:38.459Z,5.87
2017-08-07T18:19:05.510Z,6.60
2017-08-07T18:21:32.326Z,7.63
2017-08-07T18:23:59.309Z,5.30
2017-08-07T18:26:26.089Z,5.37
2017-08-07T18:28:52.943Z,5.23
2017-08-07T18:31:19.991Z,5.27
2017-08-07T18:33:47.214Z,7.33
2017-08-07T18:36:14.345Z,5.43
2017-08-07T18:38:41.156Z,8.60
2017-08-07T18:41:08.682Z,6.00
2017-08-07T18:43:35.567Z,6.30
2017-08-07T18:46:03.107Z,7.20
2017-08-07T18:48:29.889Z,7.70
2017-08-07T18:50:56.713Z,8.13
2017-08-07T18:53:23.953Z,5.60
2017-08-07T18:55:51.843Z,6.47
2017-08-07T18:58:18.974Z,6.33
2017-08-07T19:00:46.026Z,6.90
2017-08-07T19:03:13.077Z,6.23
2017-08-07T19:05:39.976Z,7.03
2017-08-07T19:08:07.183Z,6.83
2017-08-07T19:10:33.975Z,6.67
2017-08-07T19:13:01.290Z,7.93
2017-08-07T19:15:28.669Z,9.80
2017-08-07T19:17:55.433Z,9.70
2017-08-07T19:20:22.654Z,13.20
2017-08-07T19:22:50.139Z,11.27
2017-08-07T19:25:16.949Z,12.60
2017-08-07T19:27:43.796Z,12.03
2017-08-07T19:30:10.806Z,11.70
2017-08-07T19:32:37.858Z,11.63
2017-08-07T19:35:05.011Z,12.80
2017-08-07T19:37:31.827Z,11.80
2017-08-07T19:39:58.877Z,11.30
2017-08-07T19:42:26.251Z,10.60
2017-08-07T19:44:53.663Z,17.90
2017-08-07T19:47:20.649Z,11.77
2017-08-07T19:49:47.539Z,11.30
2017-08-07T19:52:14.688Z,12.53
2017-08-07T19:54:41.642Z,12.53
2017-08-07T19:57:08.469Z,15.23
2017-08-07T19:59:36.019Z,11.47
2017-08-07T20:02:03.505Z,9.10
2017-08-07T20:04:30.725Z,10.53
2017-08-07T20:06:57.996Z,11.53
2017-08-07T20:09:24.884Z,9.80
2017-08-07T20:11:52.101Z,10.63
2017-08-07T20:14:19.161Z,9.70
2017-08-07T20:16:46.046Z,10.30
2017-08-07T20:19:12.865Z,10.40
2017-08-07T20:21:40.121Z,11.17
2017-08-07T20:24:07.366Z,12.33
2017-08-07T20:26:34.907Z,11.27
2017-08-07T20:29:02.648Z,11.33
2017-08-07T20:31:29.915Z,13.37
2017-08-07T20:33:57.111Z,12.80
2017-08-07T20:36:24.006Z,11.60
2017-08-07T20:38:51.044Z,14.33
2017-08-07T20:41:18.520Z,9.60
2017-08-07T20:43:46.348Z,8.20
2017-08-07T20:46:13.608Z,9.50
2017-08-07T20:48:41.461Z,7.80
2017-08-07T20:51:08.635Z,7.60
2017-08-07T20:53:36.252Z,7.73
2017-08-07T20:56:03.189Z,8.73
2017-08-07T20:58:30.307Z,7.90
2017-08-07T21:00:57.294Z,11.10
2017-08-07T21:03:24.128Z,8.40
2017-08-07T21:05:51.264Z,8.17
2017-08-07T21:08:18.394Z,9.30
2017-08-07T21:10:45.838Z,11.17
2017-08-07T21:13:12.932Z,8.60
2017-08-07T21:15:39.739Z,8.37
2017-08-07T21:18:06.833Z,8.60
2017-08-07T21:20:33.887Z,9.23
2017-08-07T21:23:00.774Z,8.77
2017-08-07T21:25:27.619Z,9.43
2017-08-07T21:27:54.941Z,12.73
2017-08-07T21:30:22.657Z,13.13
2017-08-07T21:32:49.950Z,9.53
2017-08-07T21:35:16.713Z,9.40
2017-08-07T21:37:43.765Z,12.90
2017-08-07T21:40:10.926Z,10.87
2017-08-07T21:42:37.977Z,11.67
2017-08-07T21:45:04.862Z,12.07
2017-08-07T21:47:32.083Z,9.93
2017-08-07T21:49:59.140Z,13.30
2017-08-07T21:52:26.022Z,9.60
2017-08-07T21:54:53.242Z,10.60
2017-08-07T21:57:20.551Z,11.33
2017-08-07T21:59:47.658Z,10.90
2017-08-07T22:02:15.212Z,10.77
2017-08-07T22:04:42.213Z,11.60
2017-08-07T22:07:09.429Z,11.20
2017-08-07T22:09:36.660Z,10.60
2017-08-07T22:12:03.842Z,9.63
2017-08-07T22:14:31.370Z,10.53
2017-08-07T22:16:58.187Z,21.90
2017-08-07T22:19:24.966Z,10.70
2017-08-07T22:21:52.056Z,13.13
2017-08-07T22:24:18.957Z,11.53
2017-08-07T22:26:46.158Z,10.40
2017-08-07T22:29:13.214Z,15.03
2017-08-07T22:31:40.020Z,18.80
2017-08-07T22:34:07.013Z,10.10
2017-08-07T22:36:34.245Z,13.80
2017-08-07T22:39:01.428Z,10.23
2017-08-07T22:41:28.207Z,9.83
2017-08-07T22:43:54.996Z,13.23
2017-08-07T22:46:22.115Z,11.60
2017-08-07T22:48:49.650Z,11.60
2017-08-07T22:51:16.999Z,11.30
2017-08-07T22:53:43.850Z,12.13
2017-08-07T22:56:10.631Z,10.10
2017-08-07T22:58:37.430Z,15.77
2017-08-07T23:01:04.563Z,9.97
2017-08-07T23:03:31.650Z,10.30
2017-08-07T23:05:58.433Z,11.60
2017-08-07T23:08:25.756Z,16.93
2017-08-07T23:10:53.610Z,10.93
2017-08-07T23:13:20.784Z,9.73
2017-08-07T23:15:47.665Z,10.50
2017-08-07T23:18:15.763Z,9.30
2017-08-07T23:20:42.536Z,10.77
2017-08-07T23:23:10.099Z,10.57
2017-08-07T23:25:36.888Z,11.57
2017-08-07T23:28:03.855Z,13.63
2017-08-07T23:30:31.080Z,10.37
2017-08-07T23:32:57.859Z,12.43
2017-08-07T23:35:24.876Z,9.93
2017-08-07T23:37:51.937Z,11.13
2017-08-07T23:40:18.991Z,11.10
2017-08-07T23:42:45.770Z,11.17
2017-08-07T23:45:12.607Z,10.27
2017-08-07T23:47:39.383Z,10.40
2017-08-07T23:50:06.155Z,10.33
2017-08-07T23:52:33.314Z,12.37
2017-08-07T23:55:01.057Z,11.03
2017-08-07T23:57:28.046Z,11.33
2017-08-07T23:59:54.863Z,12.40
